sensor_id;sensor_type;location;lat;lon;timestamp;P1;durP1;ratioP1;P2;durP2;ratioP2
72603;SDS011;60645;56.968;24.196;2022-09-27T07:31:44;8.57;;;3.97;;
72603;SDS011;60645;56.968;24.196;2022-09-27T07:34:11;11.98;;;4.20;;
72603;SDS011;60645;56.968;24.196;2022-09-27T07:36:38;10.27;;;4.13;;
72603;SDS011;60645;56.968;24.196;2022-09-27T07:39:05;11.05;;;3.67;;
72603;SDS011;60645;56.968;24.196;2022-09-27T07:41:32;7.50;;;3.83;;
72603;SDS011;60645;56.968;24.196;2022-09-27T07:43:59;8.32;;;4.68;;
72603;SDS011;60645;56.968;24.196;2022-09-27T07:46:28;6.00;;;3.47;;
72603;SDS011;60645;56.968;24.196;2022-09-27T07:48:55;5.22;;;4.15;;
72603;SDS011;60645;56.968;24.196;2022-09-27T07:51:22;6.97;;;3.80;;
72603;SDS011;60645;56.968;24.196;2022-09-27T07:53:49;5.75;;;4.15;;
72603;SDS011;60645;56.968;24.196;2022-09-27T07:56:16;10.27;;;4.32;;
72603;SDS011;60645;56.968;24.196;2022-09-27T07:58:43;7.47;;;4.38;;
72603;SDS011;60645;56.968;24.196;2022-09-27T08:01:10;5.60;;;3.70;;
72603;SDS011;60645;56.968;24.196;2022-09-27T08:03:37;6.35;;;3.30;;
72603;SDS011;60645;56.968;24.196;2022-09-27T08:06:05;7.13;;;3.22;;
72603;SDS011;60645;56.968;24.196;2022-09-27T08:08:32;6.63;;;3.28;;
72603;SDS011;60645;56.968;24.196;2022-09-27T08:10:59;7.18;;;3.30;;
72603;SDS011;60645;56.968;24.196;2022-09-27T08:13:26;5.28;;;2.97;;
72603;SDS011;60645;56.968;24.196;2022-09-27T08:15:56;7.55;;;3.28;;
72603;SDS011;60645;56.968;24.196;2022-09-27T08:18:27;10.02;;;3.63;;
72603;SDS011;60645;56.968;24.196;2022-09-27T08:20:57;6.38;;;3.38;;
72603;SDS011;60645;56.968;24.196;2022-09-27T08:23:25;4.10;;;3.17;;
72603;SDS011;60645;56.968;24.196;2022-09-27T08:25:53;8.40;;;3.42;;
72603;SDS011;60645;56.968;24.196;2022-09-27T08:28:20;5.05;;;3.35;;
72603;SDS011;60645;56.968;24.196;2022-09-27T08:30:48;7.00;;;3.38;;
72603;SDS011;60645;56.968;24.196;2022-09-27T08:33:16;6.38;;;3.67;;
72603;SDS011;60645;56.968;24.196;2022-09-27T08:35:43;5.25;;;2.97;;
72603;SDS011;60645;56.968;24.196;2022-09-27T08:38:10;5.65;;;3.17;;
72603;SDS011;60645;56.968;24.196;2022-09-27T08:48:46;5.75;;;2.75;;
72603;SDS011;60645;56.968;24.196;2022-09-27T08:51:16;4.40;;;2.90;;
72603;SDS011;60645;56.968;24.196;2022-09-27T08:53:50;3.28;;;2.65;;
72603;SDS011;60645;56.968;24.196;2022-09-27T08:56:38;4.93;;;3.13;;
72603;SDS011;60645;56.968;24.196;2022-09-27T08:59:24;4.47;;;2.60;;
72603;SDS011;60645;56.968;24.196;2022-09-27T09:01:54;3.88;;;2.67;;
72603;SDS011;60645;56.968;24.196;2022-09-27T09:04:26;6.68;;;2.78;;
72603;SDS011;60645;56.968;24.196;2022-09-27T09:07:09;3.25;;;2.75;;
72603;SDS011;60645;56.968;24.196;2022-09-27T09:09:47;3.72;;;2.97;;
72603;SDS011;60645;56.968;24.196;2022-09-27T09:15:21;4.97;;;3.50;;
72603;SDS011;60645;56.968;24.196;2022-09-27T09:17:52;6.30;;;3.20;;
72603;SDS011;60645;56.968;24.196;2022-09-27T09:26:47;4.28;;;2.78;;
72603;SDS011;60645;56.968;24.196;2022-09-27T09:29:20;3.97;;;2.95;;
72603;SDS011;60645;56.968;24.196;2022-09-27T09:34:56;4.95;;;3.17;;
72603;SDS011;60645;56.968;24.196;2022-09-27T09:37:50;4.43;;;3.13;;
72603;SDS011;60645;56.968;24.196;2022-09-27T09:45:40;3.75;;;3.35;;
72603;SDS011;60645;56.968;24.196;2022-09-27T09:48:27;3.97;;;3.00;;
72603;SDS011;60645;56.968;24.196;2022-09-27T09:51:00;6.00;;;3.83;;
72603;SDS011;60645;56.968;24.196;2022-09-27T09:56:06;5.00;;;3.90;;
72603;SDS011;60645;56.968;24.196;2022-09-27T09:58:47;6.00;;;3.20;;
72603;SDS011;60645;56.968;24.196;2022-09-27T10:01:39;6.43;;;3.38;;
72603;SDS011;60645;56.968;24.196;2022-09-27T10:04:11;5.53;;;3.20;;
72603;SDS011;60645;56.968;24.196;2022-09-27T10:06:44;4.25;;;3.72;;
72603;SDS011;60645;56.968;24.196;2022-09-27T10:09:13;4.35;;;3.20;;
72603;SDS011;60645;56.968;24.196;2022-09-27T10:11:42;4.72;;;3.72;;
72603;SDS011;60645;56.968;24.196;2022-09-27T10:14:12;5.53;;;3.95;;
72603;SDS011;60645;56.968;24.196;2022-09-27T10:16:42;6.22;;;3.60;;
72603;SDS011;60645;56.968;24.196;2022-09-27T10:19:18;4.45;;;3.67;;
72603;SDS011;60645;56.968;24.196;2022-09-27T10:21:52;6.45;;;3.55;;
72603;SDS011;60645;56.968;24.196;2022-09-27T10:24:19;6.43;;;3.97;;
72603;SDS011;60645;56.968;24.196;2022-09-27T10:26:47;6.05;;;3.33;;
72603;SDS011;60645;56.968;24.196;2022-09-27T10:31:46;6.30;;;3.90;;
72603;SDS011;60645;56.968;24.196;2022-09-27T10:37:03;4.97;;;3.92;;
72603;SDS011;60645;56.968;24.196;2022-09-27T10:39:31;8.20;;;4.07;;
72603;SDS011;60645;56.968;24.196;2022-09-27T10:41:59;6.72;;;3.80;;
72603;SDS011;60645;56.968;24.196;2022-09-27T10:44:27;4.18;;;3.50;;
72603;SDS011;60645;56.968;24.196;2022-09-27T10:46:58;6.75;;;3.50;;
72603;SDS011;60645;56.968;24.196;2022-09-27T10:52:00;5.47;;;3.95;;
72603;SDS011;60645;56.968;24.196;2022-09-27T10:54:41;4.07;;;3.50;;
72603;SDS011;60645;56.968;24.196;2022-09-27T10:57:17;7.28;;;4.88;;
72603;SDS011;60645;56.968;24.196;2022-09-27T10:59:49;4.97;;;3.53;;
72603;SDS011;60645;56.968;24.196;2022-09-27T11:02:23;5.45;;;3.70;;
72603;SDS011;60645;56.968;24.196;2022-09-27T11:05:28;5.60;;;4.20;;
72603;SDS011;60645;56.968;24.196;2022-09-27T11:07:59;6.82;;;3.97;;
72603;SDS011;60645;56.968;24.196;2022-09-27T11:10:29;5.85;;;3.83;;
72603;SDS011;60645;56.968;24.196;2022-09-27T11:26:25;4.20;;;3.58;;
72603;SDS011;60645;56.968;24.196;2022-09-27T11:32:37;5.53;;;4.18;;
72603;SDS011;60645;56.968;24.196;2022-09-27T11:38:25;9.55;;;4.07;;
72603;SDS011;60645;56.968;24.196;2022-09-27T11:41:21;8.32;;;4.05;;
72603;SDS011;60645;56.968;24.196;2022-09-27T11:43:57;7.45;;;4.18;;
72603;SDS011;60645;56.968;24.196;2022-09-27T11:49:57;7.57;;;4.10;;
72603;SDS011;60645;56.968;24.196;2022-09-27T11:55:44;7.75;;;4.38;;
72603;SDS011;60645;56.968;24.196;2022-09-27T12:09:09;5.13;;;4.63;;
72603;SDS011;60645;56.968;24.196;2022-09-27T12:11:48;5.85;;;4.72;;
72603;SDS011;60645;56.968;24.196;2022-09-27T12:14:24;6.22;;;5.05;;
72603;SDS011;60645;56.968;24.196;2022-09-27T12:17:13;8.35;;;5.50;;
72603;SDS011;60645;56.968;24.196;2022-09-27T12:19:45;9.88;;;4.97;;
72603;SDS011;60645;56.968;24.196;2022-09-27T12:22:18;8.40;;;5.28;;
72603;SDS011;60645;56.968;24.196;2022-09-27T12:25:12;7.05;;;4.88;;
72603;SDS011;60645;56.968;24.196;2022-09-27T12:27:48;9.43;;;5.32;;
72603;SDS011;60645;56.968;24.196;2022-09-27T12:30:23;8.68;;;5.50;;
72603;SDS011;60645;56.968;24.196;2022-09-27T12:35:54;9.35;;;5.50;;
72603;SDS011;60645;56.968;24.196;2022-09-27T12:41:11;10.57;;;5.60;;
72603;SDS011;60645;56.968;24.196;2022-09-27T12:43:43;6.40;;;5.00;;
72603;SDS011;60645;56.968;24.196;2022-09-27T12:47:03;7.78;;;5.75;;
72603;SDS011;60645;56.968;24.196;2022-09-27T12:52:27;7.35;;;4.95;;
72603;SDS011;60645;56.968;24.196;2022-09-27T13:00:34;6.38;;;4.40;;
72603;SDS011;60645;56.968;24.196;2022-09-27T13:09:16;7.53;;;5.40;;
72603;SDS011;60645;56.968;24.196;2022-09-27T13:14:43;8.20;;;6.13;;
72603;SDS011;60645;56.968;24.196;2022-09-27T13:22:51;9.57;;;5.90;;
72603;SDS011;60645;56.968;24.196;2022-09-27T13:31:00;7.75;;;5.60;;
72603;SDS011;60645;56.968;24.196;2022-09-27T13:41:33;6.65;;;5.13;;
72603;SDS011;60645;56.968;24.196;2022-09-27T13:44:22;7.38;;;5.35;;
72603;SDS011;60645;56.968;24.196;2022-09-27T13:46:59;9.38;;;5.55;;
72603;SDS011;60645;56.968;24.196;2022-09-27T13:49:41;7.20;;;5.53;;
72603;SDS011;60645;56.968;24.196;2022-09-27T13:52:21;8.15;;;5.05;;
72603;SDS011;60645;56.968;24.196;2022-09-27T13:55:02;7.70;;;4.82;;
72603;SDS011;60645;56.968;24.196;2022-09-27T13:57:58;6.63;;;5.18;;
72603;SDS011;60645;56.968;24.196;2022-09-27T14:00:43;6.13;;;5.05;;
72603;SDS011;60645;56.968;24.196;2022-09-27T14:06:16;7.93;;;5.05;;
72603;SDS011;60645;56.968;24.196;2022-09-27T14:08:58;6.28;;;5.65;;
72603;SDS011;60645;56.968;24.196;2022-09-27T14:11:32;7.05;;;5.00;;
72603;SDS011;60645;56.968;24.196;2022-09-27T14:14:04;10.95;;;4.85;;
72603;SDS011;60645;56.968;24.196;2022-09-27T14:16:34;8.30;;;5.47;;
72603;SDS011;60645;56.968;24.196;2022-09-27T14:19:08;7.10;;;5.10;;
72603;SDS011;60645;56.968;24.196;2022-09-27T14:24:29;7.60;;;5.38;;
72603;SDS011;60645;56.968;24.196;2022-09-27T14:27:09;5.20;;;4.40;;
72603;SDS011;60645;56.968;24.196;2022-09-27T14:29:47;5.55;;;4.55;;
72603;SDS011;60645;56.968;24.196;2022-09-27T14:32:15;6.47;;;4.70;;
72603;SDS011;60645;56.968;24.196;2022-09-27T14:34:44;5.82;;;4.80;;
72603;SDS011;60645;56.968;24.196;2022-09-27T14:37:22;4.90;;;4.03;;
72603;SDS011;60645;56.968;24.196;2022-09-27T14:40:01;7.35;;;4.40;;
72603;SDS011;60645;56.968;24.196;2022-09-27T14:42:34;6.85;;;4.68;;
72603;SDS011;60645;56.968;24.196;2022-09-27T14:45:06;6.32;;;4.93;;
72603;SDS011;60645;56.968;24.196;2022-09-27T14:47:44;6.00;;;4.70;;
72603;SDS011;60645;56.968;24.196;2022-09-27T14:50:22;7.13;;;4.68;;
72603;SDS011;60645;56.968;24.196;2022-09-27T14:52:53;8.65;;;4.72;;
72603;SDS011;60645;56.968;24.196;2022-09-27T14:55:23;10.27;;;4.70;;
72603;SDS011;60645;56.968;24.196;2022-09-27T14:57:54;5.68;;;4.47;;
72603;SDS011;60645;56.968;24.196;2022-09-27T15:02:54;7.85;;;4.63;;
72603;SDS011;60645;56.968;24.196;2022-09-27T15:05:23;7.72;;;4.53;;
72603;SDS011;60645;56.968;24.196;2022-09-27T15:10:22;10.50;;;5.00;;
72603;SDS011;60645;56.968;24.196;2022-09-27T15:12:53;20.00;;;6.60;;
72603;SDS011;60645;56.968;24.196;2022-09-27T15:15:26;22.02;;;6.78;;
72603;SDS011;60645;56.968;24.196;2022-09-27T15:18:01;16.05;;;5.95;;
72603;SDS011;60645;56.968;24.196;2022-09-27T15:20:52;11.40;;;6.18;;
72603;SDS011;60645;56.968;24.196;2022-09-27T15:23:25;10.48;;;5.38;;
72603;SDS011;60645;56.968;24.196;2022-09-27T15:26:54;15.45;;;5.85;;
72603;SDS011;60645;56.968;24.196;2022-09-27T15:28:51;11.35;;;5.65;;
72603;SDS011;60645;56.968;24.196;2022-09-27T15:31:35;12.63;;;5.03;;
72603;SDS011;60645;56.968;24.196;2022-09-27T15:34:02;14.15;;;5.20;;
72603;SDS011;60645;56.968;24.196;2022-09-27T15:36:49;9.23;;;4.22;;
72603;SDS011;60645;56.968;24.196;2022-09-27T15:39:29;11.32;;;5.22;;
72603;SDS011;60645;56.968;24.196;2022-09-27T15:42:09;10.45;;;4.43;;
72603;SDS011;60645;56.968;24.196;2022-09-27T15:44:49;9.38;;;5.03;;
72603;SDS011;60645;56.968;24.196;2022-09-27T15:52:41;10.10;;;4.97;;
72603;SDS011;60645;56.968;24.196;2022-09-27T15:55:20;8.40;;;4.38;;
72603;SDS011;60645;56.968;24.196;2022-09-27T15:57:59;7.70;;;4.70;;
72603;SDS011;60645;56.968;24.196;2022-09-27T16:00:30;8.73;;;4.53;;
72603;SDS011;60645;56.968;24.196;2022-09-27T16:02:57;8.13;;;4.80;;
72603;SDS011;60645;56.968;24.196;2022-09-27T16:05:24;7.75;;;3.90;;
72603;SDS011;60645;56.968;24.196;2022-09-27T16:07:53;8.88;;;4.53;;
72603;SDS011;60645;56.968;24.196;2022-09-27T16:10:25;7.53;;;4.20;;
72603;SDS011;60645;56.968;24.196;2022-09-27T16:12:55;9.85;;;4.13;;
72603;SDS011;60645;56.968;24.196;2022-09-27T16:15:22;12.55;;;4.45;;
72603;SDS011;60645;56.968;24.196;2022-09-27T16:17:49;9.18;;;4.72;;
72603;SDS011;60645;56.968;24.196;2022-09-27T16:20:20;9.65;;;3.97;;
72603;SDS011;60645;56.968;24.196;2022-09-27T16:22:49;10.52;;;4.32;;
72603;SDS011;60645;56.968;24.196;2022-09-27T16:25:17;7.05;;;4.45;;
72603;SDS011;60645;56.968;24.196;2022-09-27T16:27:44;8.02;;;3.72;;
72603;SDS011;60645;56.968;24.196;2022-09-27T16:30:11;8.00;;;4.00;;
72603;SDS011;60645;56.968;24.196;2022-09-27T16:32:39;9.35;;;4.43;;
72603;SDS011;60645;56.968;24.196;2022-09-27T16:35:07;9.43;;;4.25;;
72603;SDS011;60645;56.968;24.196;2022-09-27T16:37:35;7.22;;;4.28;;
72603;SDS011;60645;56.968;24.196;2022-09-27T16:40:03;8.80;;;4.18;;
72603;SDS011;60645;56.968;24.196;2022-09-27T16:42:31;6.63;;;4.05;;
72603;SDS011;60645;56.968;24.196;2022-09-27T16:44:58;5.82;;;4.00;;
72603;SDS011;60645;56.968;24.196;2022-09-27T16:47:32;8.65;;;4.20;;
72603;SDS011;60645;56.968;24.196;2022-09-27T16:50:00;5.80;;;3.58;;
72603;SDS011;60645;56.968;24.196;2022-09-27T16:52:45;6.97;;;3.95;;
72603;SDS011;60645;56.968;24.196;2022-09-27T16:55:15;9.27;;;3.97;;
72603;SDS011;60645;56.968;24.196;2022-09-27T16:57:46;7.78;;;4.13;;
72603;SDS011;60645;56.968;24.196;2022-09-27T17:00:14;6.10;;;3.83;;
72603;SDS011;60645;56.968;24.196;2022-09-27T17:02:42;6.88;;;3.55;;
72603;SDS011;60645;56.968;24.196;2022-09-27T17:05:12;5.10;;;3.55;;
72603;SDS011;60645;56.968;24.196;2022-09-27T17:07:40;6.15;;;3.58;;
72603;SDS011;60645;56.968;24.196;2022-09-27T17:10:07;9.80;;;4.13;;
72603;SDS011;60645;56.968;24.196;2022-09-27T17:12:34;11.02;;;4.15;;
72603;SDS011;60645;56.968;24.196;2022-09-27T17:15:02;6.78;;;3.72;;
72603;SDS011;60645;56.968;24.196;2022-09-27T17:17:29;6.63;;;3.72;;
72603;SDS011;60645;56.968;24.196;2022-09-27T17:19:56;8.52;;;4.03;;
72603;SDS011;60645;56.968;24.196;2022-09-27T17:22:22;7.03;;;3.38;;
72603;SDS011;60645;56.968;24.196;2022-09-27T17:24:49;7.10;;;3.90;;
72603;SDS011;60645;56.968;24.196;2022-09-27T17:27:16;6.03;;;3.22;;
72603;SDS011;60645;56.968;24.196;2022-09-27T17:29:43;6.72;;;3.63;;
72603;SDS011;60645;56.968;24.196;2022-09-27T17:32:10;13.35;;;4.13;;
72603;SDS011;60645;56.968;24.196;2022-09-27T17:34:38;6.80;;;3.45;;
72603;SDS011;60645;56.968;24.196;2022-09-27T17:37:08;7.53;;;4.07;;
72603;SDS011;60645;56.968;24.196;2022-09-27T17:39:38;5.88;;;3.30;;
72603;SDS011;60645;56.968;24.196;2022-09-27T17:42:06;7.80;;;3.72;;
72603;SDS011;60645;56.968;24.196;2022-09-27T17:44:33;5.80;;;4.03;;
72603;SDS011;60645;56.968;24.196;2022-09-27T17:47:02;6.55;;;3.47;;
72603;SDS011;60645;56.968;24.196;2022-09-27T17:49:48;7.18;;;4.05;;
72603;SDS011;60645;56.968;24.196;2022-09-27T17:52:33;7.07;;;4.18;;
72603;SDS011;60645;56.968;24.196;2022-09-27T17:55:00;7.40;;;3.70;;
72603;SDS011;60645;56.968;24.196;2022-09-27T17:57:27;8.02;;;3.75;;
72603;SDS011;60645;56.968;24.196;2022-09-27T17:59:54;4.47;;;3.13;;
72603;SDS011;60645;56.968;24.196;2022-09-27T18:02:23;7.38;;;3.85;;
72603;SDS011;60645;56.968;24.196;2022-09-27T18:04:51;5.72;;;3.33;;
72603;SDS011;60645;56.968;24.196;2022-09-27T18:07:18;5.90;;;3.42;;
72603;SDS011;60645;56.968;24.196;2022-09-27T18:09:45;4.97;;;3.17;;
72603;SDS011;60645;56.968;24.196;2022-09-27T18:12:12;4.90;;;3.25;;
72603;SDS011;60645;56.968;24.196;2022-09-27T18:14:39;6.05;;;3.55;;
72603;SDS011;60645;56.968;24.196;2022-09-27T18:17:06;6.28;;;3.08;;
72603;SDS011;60645;56.968;24.196;2022-09-27T18:19:36;5.78;;;3.45;;
72603;SDS011;60645;56.968;24.196;2022-09-27T18:22:03;5.75;;;2.95;;
72603;SDS011;60645;56.968;24.196;2022-09-27T18:24:30;5.43;;;3.38;;
72603;SDS011;60645;56.968;24.196;2022-09-27T18:26:57;5.30;;;3.53;;
72603;SDS011;60645;56.968;24.196;2022-09-27T18:29:25;4.82;;;3.53;;
72603;SDS011;60645;56.968;24.196;2022-09-27T18:31:53;5.28;;;3.45;;
72603;SDS011;60645;56.968;24.196;2022-09-27T18:34:21;5.18;;;2.83;;
72603;SDS011;60645;56.968;24.196;2022-09-27T18:36:51;3.95;;;2.80;;
72603;SDS011;60645;56.968;24.196;2022-09-27T18:39:19;5.32;;;3.00;;
72603;SDS011;60645;56.968;24.196;2022-09-27T18:41:46;5.93;;;3.35;;
72603;SDS011;60645;56.968;24.196;2022-09-27T18:44:15;5.30;;;3.65;;
72603;SDS011;60645;56.968;24.196;2022-09-27T18:46:43;6.88;;;3.55;;
72603;SDS011;60645;56.968;24.196;2022-09-27T18:49:10;3.67;;;3.03;;
72603;SDS011;60645;56.968;24.196;2022-09-27T18:51:39;4.43;;;2.97;;
72603;SDS011;60645;56.968;24.196;2022-09-27T18:54:12;5.00;;;3.10;;
72603;SDS011;60645;56.968;24.196;2022-09-27T18:56:40;5.40;;;2.70;;
72603;SDS011;60645;56.968;24.196;2022-09-27T18:59:07;4.53;;;2.85;;
72603;SDS011;60645;56.968;24.196;2022-09-27T19:01:36;3.67;;;2.65;;
72603;SDS011;60645;56.968;24.196;2022-09-27T19:04:06;6.40;;;2.92;;
72603;SDS011;60645;56.968;24.196;2022-09-27T19:06:34;4.70;;;2.88;;
72603;SDS011;60645;56.968;24.196;2022-09-27T19:09:02;5.93;;;3.30;;
72603;SDS011;60645;56.968;24.196;2022-09-27T19:11:31;3.83;;;2.72;;
72603;SDS011;60645;56.968;24.196;2022-09-27T19:13:59;8.25;;;3.13;;
72603;SDS011;60645;56.968;24.196;2022-09-27T19:16:28;5.88;;;3.33;;
72603;SDS011;60645;56.968;24.196;2022-09-27T19:18:55;8.80;;;3.33;;
72603;SDS011;60645;56.968;24.196;2022-09-27T19:21:23;6.32;;;2.55;;
72603;SDS011;60645;56.968;24.196;2022-09-27T19:23:52;5.57;;;2.92;;
72603;SDS011;60645;56.968;24.196;2022-09-27T19:26:20;7.25;;;2.92;;
72603;SDS011;60645;56.968;24.196;2022-09-27T19:28:49;6.65;;;3.00;;
72603;SDS011;60645;56.968;24.196;2022-09-27T19:31:17;7.45;;;2.92;;
72603;SDS011;60645;56.968;24.196;2022-09-27T19:33:49;5.60;;;2.80;;
72603;SDS011;60645;56.968;24.196;2022-09-27T19:36:21;24.52;;;9.68;;
72603;SDS011;60645;56.968;24.196;2022-09-27T19:38:48;18.17;;;8.30;;
72603;SDS011;60645;56.968;24.196;2022-09-27T19:41:17;20.33;;;8.80;;
72603;SDS011;60645;56.968;24.196;2022-09-27T19:43:48;25.45;;;10.18;;
72603;SDS011;60645;56.968;24.196;2022-09-27T19:46:16;33.05;;;13.98;;
72603;SDS011;60645;56.968;24.196;2022-09-27T19:48:44;40.58;;;16.00;;
72603;SDS011;60645;56.968;24.196;2022-09-27T19:51:16;38.20;;;16.73;;
72603;SDS011;60645;56.968;24.196;2022-09-27T19:53:45;36.80;;;15.50;;
72603;SDS011;60645;56.968;24.196;2022-09-27T19:56:12;41.25;;;15.98;;
72603;SDS011;60645;56.968;24.196;2022-09-27T19:58:40;36.47;;;15.75;;
72603;SDS011;60645;56.968;24.196;2022-09-27T20:01:14;35.92;;;15.55;;
72603;SDS011;60645;56.968;24.196;2022-09-27T20:03:45;37.25;;;15.63;;
72603;SDS011;60645;56.968;24.196;2022-09-27T20:06:14;35.92;;;14.48;;
72603;SDS011;60645;56.968;24.196;2022-09-27T20:08:42;32.13;;;14.25;;
72603;SDS011;60645;56.968;24.196;2022-09-27T20:11:11;33.95;;;13.43;;
72603;SDS011;60645;56.968;24.196;2022-09-27T20:13:40;31.23;;;13.32;;
72603;SDS011;60645;56.968;24.196;2022-09-27T20:16:09;27.85;;;12.95;;
72603;SDS011;60645;56.968;24.196;2022-09-27T20:18:45;30.73;;;12.98;;
72603;SDS011;60645;56.968;24.196;2022-09-27T20:21:14;27.17;;;11.95;;
72603;SDS011;60645;56.968;24.196;2022-09-27T20:23:42;29.35;;;12.02;;
72603;SDS011;60645;56.968;24.196;2022-09-27T20:26:12;28.38;;;12.27;;
72603;SDS011;60645;56.968;24.196;2022-09-27T20:31:15;25.95;;;10.38;;
72603;SDS011;60645;56.968;24.196;2022-09-27T20:33:44;30.75;;;10.68;;
72603;SDS011;60645;56.968;24.196;2022-09-27T20:38:50;25.20;;;10.13;;
72603;SDS011;60645;56.968;24.196;2022-09-27T20:41:28;28.17;;;10.63;;
72603;SDS011;60645;56.968;24.196;2022-09-27T20:44:04;23.92;;;10.23;;
72603;SDS011;60645;56.968;24.196;2022-09-27T20:46:32;23.83;;;9.30;;
72603;SDS011;60645;56.968;24.196;2022-09-27T20:49:02;25.77;;;10.27;;
72603;SDS011;60645;56.968;24.196;2022-09-27T20:51:31;20.63;;;9.25;;
72603;SDS011;60645;56.968;24.196;2022-09-27T20:54:00;19.27;;;8.82;;
72603;SDS011;60645;56.968;24.196;2022-09-27T20:56:29;23.92;;;9.27;;
72603;SDS011;60645;56.968;24.196;2022-09-27T20:59:04;24.42;;;9.05;;
72603;SDS011;60645;56.968;24.196;2022-09-27T21:01:40;20.27;;;8.35;;
72603;SDS011;60645;56.968;24.196;2022-09-27T21:04:08;22.63;;;8.45;;
72603;SDS011;60645;56.968;24.196;2022-09-27T21:06:36;18.67;;;7.70;;
72603;SDS011;60645;56.968;24.196;2022-09-27T21:09:03;18.75;;;7.75;;
72603;SDS011;60645;56.968;24.196;2022-09-27T21:11:32;20.20;;;7.75;;
72603;SDS011;60645;56.968;24.196;2022-09-27T21:13:59;21.17;;;7.82;;
72603;SDS011;60645;56.968;24.196;2022-09-27T21:16:27;21.08;;;8.10;;
72603;SDS011;60645;56.968;24.196;2022-09-27T21:18:59;19.80;;;6.90;;
72603;SDS011;60645;56.968;24.196;2022-09-27T21:21:26;18.02;;;7.10;;
72603;SDS011;60645;56.968;24.196;2022-09-27T21:23:54;18.65;;;6.97;;
72603;SDS011;60645;56.968;24.196;2022-09-27T21:26:23;16.33;;;7.55;;
72603;SDS011;60645;56.968;24.196;2022-09-27T21:28:53;18.48;;;7.07;;
72603;SDS011;60645;56.968;24.196;2022-09-27T21:31:22;18.38;;;7.93;;
72603;SDS011;60645;56.968;24.196;2022-09-27T21:33:51;17.23;;;7.50;;
72603;SDS011;60645;56.968;24.196;2022-09-27T21:36:20;17.35;;;7.28;;
72603;SDS011;60645;56.968;24.196;2022-09-27T21:38:48;18.25;;;7.35;;
72603;SDS011;60645;56.968;24.196;2022-09-27T21:41:15;16.08;;;6.55;;
72603;SDS011;60645;56.968;24.196;2022-09-27T21:43:44;18.35;;;6.90;;
72603;SDS011;60645;56.968;24.196;2022-09-27T21:46:15;14.98;;;6.65;;
72603;SDS011;60645;56.968;24.196;2022-09-27T21:48:45;17.50;;;6.72;;
72603;SDS011;60645;56.968;24.196;2022-09-27T21:51:18;14.77;;;6.60;;
72603;SDS011;60645;56.968;24.196;2022-09-27T21:53:49;17.20;;;6.97;;
72603;SDS011;60645;56.968;24.196;2022-09-27T21:56:20;15.57;;;6.32;;
72603;SDS011;60645;56.968;24.196;2022-09-27T21:58:48;14.75;;;5.97;;
72603;SDS011;60645;56.968;24.196;2022-09-27T22:03:47;17.67;;;6.55;;
72603;SDS011;60645;56.968;24.196;2022-09-27T22:06:16;12.65;;;6.63;;
72603;SDS011;60645;56.968;24.196;2022-09-27T22:08:45;12.73;;;6.30;;
72603;SDS011;60645;56.968;24.196;2022-09-27T22:11:18;13.48;;;5.25;;
72603;SDS011;60645;56.968;24.196;2022-09-27T22:13:49;13.05;;;6.50;;
72603;SDS011;60645;56.968;24.196;2022-09-27T22:16:16;14.60;;;6.20;;
72603;SDS011;60645;56.968;24.196;2022-09-27T22:18:49;11.45;;;5.55;;
72603;SDS011;60645;56.968;24.196;2022-09-27T22:21:19;12.77;;;5.32;;
72603;SDS011;60645;56.968;24.196;2022-09-27T22:23:51;14.07;;;5.90;;
72603;SDS011;60645;56.968;24.196;2022-09-27T22:26:21;11.40;;;5.65;;
72603;SDS011;60645;56.968;24.196;2022-09-27T22:28:52;11.77;;;5.63;;
72603;SDS011;60645;56.968;24.196;2022-09-27T22:31:19;12.80;;;5.18;;
72603;SDS011;60645;56.968;24.196;2022-09-27T22:33:48;10.15;;;4.90;;
72603;SDS011;60645;56.968;24.196;2022-09-27T22:36:17;10.95;;;5.75;;
72603;SDS011;60645;56.968;24.196;2022-09-27T22:38:44;10.98;;;5.32;;
72603;SDS011;60645;56.968;24.196;2022-09-27T22:41:11;13.45;;;5.35;;
72603;SDS011;60645;56.968;24.196;2022-09-27T22:43:38;11.38;;;5.20;;
72603;SDS011;60645;56.968;24.196;2022-09-27T22:46:05;10.07;;;5.25;;
72603;SDS011;60645;56.968;24.196;2022-09-27T22:48:33;11.98;;;4.88;;
72603;SDS011;60645;56.968;24.196;2022-09-27T22:51:00;11.52;;;5.07;;
72603;SDS011;60645;56.968;24.196;2022-09-27T22:53:29;11.00;;;5.22;;
72603;SDS011;60645;56.968;24.196;2022-09-27T22:55:57;8.65;;;4.32;;
72603;SDS011;60645;56.968;24.196;2022-09-27T22:58:29;9.52;;;4.97;;
72603;SDS011;60645;56.968;24.196;2022-09-27T23:00:58;12.05;;;4.75;;
72603;SDS011;60645;56.968;24.196;2022-09-27T23:03:31;8.02;;;4.03;;
72603;SDS011;60645;56.968;24.196;2022-09-27T23:06:02;10.43;;;4.78;;
72603;SDS011;60645;56.968;24.196;2022-09-27T23:08:33;7.95;;;4.43;;
72603;SDS011;60645;56.968;24.196;2022-09-27T23:11:03;7.78;;;4.25;;
72603;SDS011;60645;56.968;24.196;2022-09-27T23:13:32;10.15;;;4.22;;
72603;SDS011;60645;56.968;24.196;2022-09-27T23:16:04;8.55;;;3.97;;
72603;SDS011;60645;56.968;24.196;2022-09-27T23:18:32;8.38;;;3.83;;
72603;SDS011;60645;56.968;24.196;2022-09-27T23:21:00;9.02;;;4.20;;
72603;SDS011;60645;56.968;24.196;2022-09-27T23:23:30;8.52;;;3.72;;
72603;SDS011;60645;56.968;24.196;2022-09-27T23:26:02;8.48;;;4.15;;
72603;SDS011;60645;56.968;24.196;2022-09-27T23:28:32;7.97;;;3.97;;
72603;SDS011;60645;56.968;24.196;2022-09-27T23:31:17;8.75;;;4.55;;
72603;SDS011;60645;56.968;24.196;2022-09-27T23:33:47;10.30;;;4.40;;
72603;SDS011;60645;56.968;24.196;2022-09-27T23:36:16;7.70;;;4.00;;
72603;SDS011;60645;56.968;24.196;2022-09-27T23:38:46;7.15;;;3.45;;
72603;SDS011;60645;56.968;24.196;2022-09-27T23:41:14;8.20;;;3.88;;
72603;SDS011;60645;56.968;24.196;2022-09-27T23:43:42;7.47;;;3.88;;
72603;SDS011;60645;56.968;24.196;2022-09-27T23:46:10;10.55;;;4.10;;
72603;SDS011;60645;56.968;24.196;2022-09-27T23:48:37;9.27;;;3.30;;
72603;SDS011;60645;56.968;24.196;2022-09-27T23:51:06;7.00;;;3.55;;
72603;SDS011;60645;56.968;24.196;2022-09-27T23:53:35;7.40;;;3.65;;
